Time;durP1;ratioP1;P1;durP2;ratioP2;P2;SDS_P1;SDS_P2;PMS_P1;PMS_P2;Temp;Humidity;BMP_temperature;BMP_pressure;BME280_temperature;BME280_humidity;BME280_pressure;Samples;Min_cycle;Max_cycle;Signal;HPM_P1;HPM_P2
2022/03/07 00:00:43;;;;;;;26.60;18.70;;;5.70;99.90;;;;;;4979657;28;20181;-71
2022/03/07 00:03:09;;;;;;;22.65;17.80;;;5.70;99.90;;;;;;4971880;28;20026;-71
2022/03/07 00:05:34;;;;;;;24.55;19.38;;;5.80;99.90;;;;;;4972028;28;20086;-70
2022/03/07 00:08:00;;;;;;;22.15;18.30;;;5.80;99.90;;;;;;4988514;28;20465;-69
2022/03/07 00:10:26;;;;;;;26.63;20.80;;;5.70;99.90;;;;;;4988921;28;20038;-69
2022/03/07 00:12:52;;;;;;;22.83;17.90;;;5.80;99.90;;;;;;4992102;28;20033;-70
2022/03/07 00:15:19;;;;;;;26.00;17.75;;;5.90;99.90;;;;;;4991523;28;20060;-70
2022/03/07 00:17:45;;;;;;;27.48;18.55;;;5.80;99.90;;;;;;4993463;28;20493;-70
2022/03/07 00:20:12;;;;;;;27.05;19.33;;;5.80;99.90;;;;;;4993442;28;20042;-71
2022/03/07 00:22:37;;;;;;;27.05;18.77;;;5.80;99.90;;;;;;4993378;28;20556;-70
2022/03/07 00:25:03;;;;;;;32.47;20.73;;;5.70;99.90;;;;;;4975076;28;20121;-71
2022/03/07 00:27:29;;;;;;;25.50;18.17;;;5.70;99.90;;;;;;4993129;28;20100;-70
2022/03/07 00:29:55;;;;;;;23.95;20.23;;;5.70;99.90;;;;;;4975657;28;20026;-70
2022/03/07 00:32:21;;;;;;;23.63;18.00;;;5.60;99.90;;;;;;4976799;28;20023;-70
2022/03/07 00:34:46;;;;;;;28.42;19.20;;;5.70;99.90;;;;;;4986085;28;20468;-69
2022/03/07 00:37:13;;;;;;;29.55;20.95;;;5.60;99.90;;;;;;4993217;28;20121;-70
2022/03/07 00:39:39;;;;;;;28.73;20.27;;;5.50;99.90;;;;;;4993695;28;20396;-70
2022/03/07 00:42:05;;;;;;;22.05;16.90;;;5.50;99.90;;;;;;4993808;28;20028;-70
2022/03/07 00:44:30;;;;;;;26.55;19.45;;;5.50;99.90;;;;;;4975754;28;20026;-70
2022/03/07 00:46:56;;;;;;;25.95;20.42;;;5.50;99.90;;;;;;4975559;28;20026;-70
2022/03/07 00:49:22;;;;;;;29.33;20.33;;;5.50;99.90;;;;;;4992344;28;20473;-70
2022/03/07 00:51:48;;;;;;;24.17;19.15;;;5.50;99.90;;;;;;4975282;28;20026;-70
2022/03/07 00:54:14;;;;;;;30.20;20.92;;;5.40;99.90;;;;;;4992857;28;20037;-70
2022/03/07 00:56:39;;;;;;;26.23;19.73;;;5.50;99.90;;;;;;4975207;28;20066;-70
2022/03/07 00:59:06;;;;;;;24.40;18.52;;;5.40;99.90;;;;;;4975169;28;20156;-70
2022/03/07 01:01:32;;;;;;;30.77;21.63;;;5.40;99.90;;;;;;4992427;28;20023;-69
2022/03/07 01:03:57;;;;;;;26.65;21.42;;;5.50;99.90;;;;;;4975083;28;20076;-69
2022/03/07 01:06:23;;;;;;;26.42;19.75;;;5.40;99.90;;;;;;4992120;28;20029;-70
2022/03/07 01:08:49;;;;;;;24.88;19.20;;;5.40;99.90;;;;;;4972212;28;20113;-70
2022/03/07 01:11:15;;;;;;;25.75;17.85;;;5.40;99.90;;;;;;4990814;28;20134;-69
2022/03/07 01:13:40;;;;;;;24.88;19.17;;;5.30;99.90;;;;;;4988250;28;20421;-69
2022/03/07 01:16:06;;;;;;;32.97;22.85;;;5.30;99.90;;;;;;4976250;28;20030;-70
2022/03/07 01:18:32;;;;;;;26.90;20.92;;;5.30;99.90;;;;;;4994340;28;20235;-70
2022/03/07 01:20:58;;;;;;;24.08;20.15;;;5.30;99.90;;;;;;4978548;28;20503;-70
2022/03/07 01:23:24;;;;;;;31.90;21.88;;;5.20;99.90;;;;;;4971482;28;20058;-70
2022/03/07 01:25:50;;;;;;;25.25;20.10;;;5.20;99.90;;;;;;4971560;28;20038;-70
2022/03/07 01:28:15;;;;;;;30.02;22.35;;;5.20;99.90;;;;;;4972297;28;20034;-69
2022/03/07 01:30:41;;;;;;;25.63;20.15;;;5.20;99.90;;;;;;4973854;28;20026;-69
2022/03/07 01:33:07;;;;;;;27.85;19.90;;;5.30;99.90;;;;;;4983385;28;20393;-70
2022/03/07 01:35:33;;;;;;;24.15;19.83;;;5.20;99.90;;;;;;4991092;28;20033;-70
2022/03/07 01:37:58;;;;;;;26.25;20.17;;;5.20;99.90;;;;;;4967326;28;20037;-70
2022/03/07 01:40:24;;;;;;;27.35;20.30;;;5.30;99.90;;;;;;4970174;28;20026;-70
2022/03/07 01:42:50;;;;;;;29.45;22.10;;;5.30;99.90;;;;;;4989228;28;20026;-70
2022/03/07 01:45:19;;;;;;;27.17;19.63;;;5.30;99.90;;;;;;4971479;28;20033;-69
2022/03/07 01:47:46;;;;;;;29.17;18.35;;;5.30;99.90;;;;;;4965153;28;20448;-69
2022/03/07 01:50:15;;;;;;;30.65;21.35;;;5.30;99.90;;;;;;4973522;28;20022;-70
2022/03/07 01:52:43;;;;;;;31.15;21.88;;;5.20;99.90;;;;;;4990474;28;20033;-69
2022/03/07 01:55:11;;;;;;;30.80;22.23;;;5.10;99.90;;;;;;4990225;28;20026;-71
2022/03/07 01:57:41;;;;;;;31.42;23.25;;;5.00;99.90;;;;;;4968898;28;20026;-69
2022/03/07 02:00:12;;;;;;;31.67;21.38;;;5.00;99.90;;;;;;4968933;28;20133;-69
2022/03/07 02:02:37;;;;;;;29.15;20.10;;;5.00;99.90;;;;;;4973226;28;20026;-69
2022/03/07 02:05:04;;;;;;;30.77;23.33;;;4.90;99.90;;;;;;4989627;28;20030;-69
2022/03/07 02:07:30;;;;;;;27.52;21.30;;;5.00;99.90;;;;;;4969343;28;20488;-68
2022/03/07 02:09:58;;;;;;;31.40;21.05;;;5.00;99.90;;;;;;4988785;28;20026;-69
2022/03/07 02:12:24;;;;;;;29.48;21.38;;;5.00;99.90;;;;;;4971433;28;20042;-71
2022/03/07 02:14:50;;;;;;;21.15;16.38;;;5.00;99.90;;;;;;4971951;28;20332;-69
2022/03/07 02:17:16;;;;;;;28.92;19.70;;;5.00;99.90;;;;;;4986390;28;20057;-69
2022/03/07 02:19:42;;;;;;;30.25;19.77;;;4.90;99.90;;;;;;4972972;28;20121;-69
2022/03/07 02:22:10;;;;;;;26.95;18.00;;;4.80;99.90;;;;;;4989722;28;20185;-69
2022/03/07 02:24:37;;;;;;;29.40;21.85;;;4.80;99.90;;;;;;4972763;28;20026;-69
2022/03/07 02:27:05;;;;;;;31.77;20.77;;;4.70;99.90;;;;;;4986147;28;20348;-69
2022/03/07 02:29:32;;;;;;;30.15;20.30;;;4.80;99.90;;;;;;4985068;28;20031;-69
2022/03/07 02:31:58;;;;;;;32.42;20.35;;;4.80;99.90;;;;;;4983088;28;20043;-70
2022/03/07 02:34:25;;;;;;;28.88;22.15;;;4.80;99.90;;;;;;4990387;28;20028;-69
2022/03/07 02:36:51;;;;;;;25.33;20.25;;;4.80;99.90;;;;;;4973137;28;20121;-70
2022/03/07 02:39:17;;;;;;;33.75;21.23;;;4.80;99.90;;;;;;4981900;28;20542;-69
2022/03/07 02:41:44;;;;;;;28.23;21.83;;;4.80;99.90;;;;;;4971517;28;20026;-69
2022/03/07 02:44:10;;;;;;;30.60;21.58;;;4.90;99.90;;;;;;4989967;28;20023;-70
2022/03/07 02:46:37;;;;;;;31.17;24.08;;;4.80;99.90;;;;;;4987161;28;20026;-70
2022/03/07 02:49:05;;;;;;;31.38;22.55;;;4.90;99.90;;;;;;4984257;28;20034;-70
2022/03/07 02:51:31;;;;;;;27.25;20.33;;;4.80;99.90;;;;;;4967281;28;20041;-69
2022/03/07 02:53:57;;;;;;;27.60;20.88;;;4.80;99.90;;;;;;4982269;28;20058;-69
2022/03/07 02:56:25;;;;;;;31.83;23.30;;;4.60;99.90;;;;;;4988685;28;20049;-70
2022/03/07 02:58:51;;;;;;;25.95;19.73;;;4.70;99.90;;;;;;4987174;28;20109;-71
2022/03/07 03:01:17;;;;;;;32.17;22.83;;;4.60;99.90;;;;;;4987681;28;20100;-69
2022/03/07 03:03:43;;;;;;;26.08;20.90;;;4.60;99.90;;;;;;4967978;28;20022;-72
2022/03/07 03:06:09;;;;;;;33.47;23.73;;;4.60;99.90;;;;;;4972885;28;20046;-70
2022/03/07 03:08:35;;;;;;;35.05;24.90;;;4.70;99.90;;;;;;4988999;28;20365;-69
2022/03/07 03:11:01;;;;;;;30.42;22.23;;;4.70;99.90;;;;;;4964898;28;20038;-70
2022/03/07 03:13:27;;;;;;;30.55;22.52;;;4.70;99.90;;;;;;4971260;28;20484;-70
2022/03/07 03:15:55;;;;;;;28.58;23.38;;;4.80;99.90;;;;;;4986208;28;20325;-69
2022/03/07 03:18:22;;;;;;;28.13;20.63;;;4.80;99.90;;;;;;4971631;28;20031;-70
2022/03/07 03:20:51;;;;;;;26.05;21.95;;;4.80;99.90;;;;;;4989525;28;20038;-70
2022/03/07 03:23:18;;;;;;;29.98;21.77;;;4.70;99.90;;;;;;4979608;28;20125;-70
2022/03/07 03:25:44;;;;;;;31.02;22.90;;;4.70;99.90;;;;;;4981502;28;20552;-70
2022/03/07 03:28:10;;;;;;;32.78;22.67;;;4.60;99.90;;;;;;4990365;28;20112;-70
2022/03/07 03:30:35;;;;;;;28.95;20.05;;;4.70;99.90;;;;;;4972285;28;20030;-69
2022/03/07 03:33:02;;;;;;;31.90;23.13;;;4.60;99.90;;;;;;4972630;28;20038;-69
2022/03/07 03:35:28;;;;;;;30.70;22.90;;;4.50;99.90;;;;;;4989922;28;20084;-70
2022/03/07 03:37:54;;;;;;;29.42;20.80;;;4.60;99.90;;;;;;4988885;28;20125;-71
2022/03/07 03:40:20;;;;;;;28.90;18.83;;;4.60;99.90;;;;;;4990146;28;20035;-70
2022/03/07 03:42:46;;;;;;;26.27;20.85;;;4.60;99.90;;;;;;4981139;28;20018;-70
2022/03/07 03:45:13;;;;;;;22.65;17.73;;;4.60;99.90;;;;;;4972897;28;20018;-71
2022/03/07 03:47:40;;;;;;;28.95;22.10;;;4.60;99.90;;;;;;4972677;28;20389;-70
2022/03/07 03:50:08;;;;;;;22.67;16.92;;;4.50;99.90;;;;;;4989780;28;20481;-70
2022/03/07 03:52:34;;;;;;;35.65;22.73;;;4.50;99.90;;;;;;4972482;28;20056;-70
2022/03/07 03:55:02;;;;;;;29.15;21.48;;;4.50;99.90;;;;;;4972605;28;20109;-70
2022/03/07 03:57:28;;;;;;;28.40;20.17;;;4.50;99.90;;;;;;4989790;28;20041;-70
2022/03/07 03:59:54;;;;;;;28.42;20.80;;;4.50;99.90;;;;;;4990001;28;20485;-70
2022/03/07 04:02:20;;;;;;;22.73;17.48;;;4.50;99.90;;;;;;4975920;28;20077;-70
2022/03/07 04:04:45;;;;;;;25.95;18.83;;;4.50;99.90;;;;;;4976035;28;20219;-70
2022/03/07 04:07:11;;;;;;;22.63;19.92;;;4.50;99.90;;;;;;4993774;28;20469;-69
2022/03/07 04:09:37;;;;;;;27.88;18.27;;;4.40;99.90;;;;;;4975503;28;20092;-70
2022/03/07 04:12:03;;;;;;;23.52;18.13;;;4.50;99.90;;;;;;4993039;28;20274;-71
2022/03/07 04:14:29;;;;;;;31.85;20.83;;;4.40;99.90;;;;;;4993503;28;20018;-70
2022/03/07 04:16:55;;;;;;;31.05;19.98;;;4.40;99.90;;;;;;4970450;28;20074;-69
2022/03/07 04:19:20;;;;;;;22.83;15.30;;;4.40;99.90;;;;;;4984778;28;20109;-70
2022/03/07 04:21:46;;;;;;;26.63;22.23;;;4.40;99.90;;;;;;4988529;28;20045;-70
2022/03/07 04:24:13;;;;;;;33.80;21.10;;;4.40;99.90;;;;;;4992771;28;20018;-70
2022/03/07 04:26:39;;;;;;;31.13;21.13;;;4.40;99.90;;;;;;4974539;28;20022;-71
2022/03/07 04:29:08;;;;;;;25.45;19.95;;;4.40;99.90;;;;;;4988405;28;20037;-70
2022/03/07 04:31:43;;;;;;;29.65;18.52;;;4.30;99.90;;;;;;4974730;28;20404;-71
2022/03/07 04:34:12;;;;;;;30.52;22.02;;;4.30;99.90;;;;;;4987726;28;20037;-70
2022/03/07 04:36:39;;;;;;;25.63;19.15;;;4.40;99.90;;;;;;4992549;28;20026;-70
2022/03/07 04:39:07;;;;;;;33.33;20.95;;;4.30;99.90;;;;;;4992030;28;20307;-70
2022/03/07 04:41:33;;;;;;;25.52;20.20;;;4.30;99.90;;;;;;4975330;28;20022;-70
2022/03/07 04:43:59;;;;;;;33.13;21.63;;;4.20;99.90;;;;;;4991266;28;20367;-70
2022/03/07 04:46:25;;;;;;;30.92;20.10;;;4.20;99.90;;;;;;4973074;28;20034;-70
2022/03/07 04:48:51;;;;;;;25.63;17.73;;;4.20;99.90;;;;;;4974214;28;20033;-70
2022/03/07 04:51:17;;;;;;;37.45;22.33;;;4.20;99.90;;;;;;4969103;28;20030;-70
2022/03/07 04:53:43;;;;;;;37.35;25.80;;;4.10;99.90;;;;;;4986731;28;20053;-69
2022/03/07 04:56:09;;;;;;;31.95;23.75;;;4.10;99.90;;;;;;4985500;28;20086;-70
2022/03/07 04:58:35;;;;;;;28.77;23.33;;;4.10;99.90;;;;;;4993956;28;20033;-71
2022/03/07 05:01:01;;;;;;;35.63;23.98;;;4.10;99.90;;;;;;4991603;28;20492;-68
2022/03/07 05:03:27;;;;;;;34.70;24.17;;;4.10;99.90;;;;;;4971103;28;20022;-70
2022/03/07 05:05:53;;;;;;;24.95;20.23;;;4.10;99.90;;;;;;4974108;28;20088;-70
2022/03/07 05:08:19;;;;;;;35.03;23.08;;;4.00;99.90;;;;;;4992127;28;20034;-70
2022/03/07 05:10:44;;;;;;;29.60;21.10;;;4.00;99.90;;;;;;4989803;28;20041;-70
2022/03/07 05:13:10;;;;;;;35.38;22.92;;;4.00;99.90;;;;;;4979874;28;20085;-70
2022/03/07 05:15:37;;;;;;;34.22;22.98;;;4.00;99.90;;;;;;4987685;28;20049;-70
2022/03/07 05:18:03;;;;;;;41.65;24.58;;;3.90;99.90;;;;;;4970598;28;20052;-70
2022/03/07 05:20:29;;;;;;;27.92;20.63;;;3.90;99.90;;;;;;4973375;28;20023;-69
2022/03/07 05:22:55;;;;;;;27.17;18.90;;;3.80;99.90;;;;;;4981658;28;20034;-69
2022/03/07 05:25:21;;;;;;;32.63;23.27;;;3.80;99.90;;;;;;4969870;28;20030;-69
2022/03/07 05:27:47;;;;;;;34.50;21.92;;;3.70;99.90;;;;;;4989785;28;20050;-71
2022/03/07 05:30:17;;;;;;;32.83;23.75;;;3.70;99.90;;;;;;4977217;28;20488;-70
2022/03/07 05:32:44;;;;;;;34.25;25.42;;;3.80;99.90;;;;;;4989871;28;20026;-70
2022/03/07 05:35:11;;;;;;;31.27;23.48;;;3.80;99.90;;;;;;4977828;28;20186;-70
2022/03/07 05:37:37;;;;;;;31.30;22.88;;;3.80;99.90;;;;;;4989534;28;20214;-70
2022/03/07 05:40:06;;;;;;;29.85;21.52;;;3.70;99.90;;;;;;4970699;28;20303;-74
2022/03/07 05:42:33;;;;;;;31.13;22.33;;;3.70;99.90;;;;;;4991721;28;20057;-70
2022/03/07 05:44:59;;;;;;;32.40;20.88;;;3.70;99.90;;;;;;4971411;28;20027;-70
2022/03/07 05:47:25;;;;;;;31.90;22.40;;;3.70;99.90;;;;;;4970216;28;20029;-69
2022/03/07 05:49:50;;;;;;;33.60;24.25;;;3.70;99.90;;;;;;4970744;28;20113;-70
2022/03/07 05:52:16;;;;;;;34.90;26.73;;;3.60;99.90;;;;;;4986380;28;20026;-70
2022/03/07 05:54:42;;;;;;;37.63;24.27;;;3.60;99.90;;;;;;4990527;28;20030;-71
2022/03/07 05:57:08;;;;;;;36.30;24.83;;;3.60;99.90;;;;;;4986447;28;20481;-69
2022/03/07 05:59:34;;;;;;;31.38;25.55;;;3.50;99.90;;;;;;4991742;28;20113;-70
2022/03/07 06:01:59;;;;;;;29.02;21.08;;;3.50;99.90;;;;;;4987693;28;20170;-69
2022/03/07 06:04:26;;;;;;;30.15;21.90;;;3.50;99.90;;;;;;4973636;28;20019;-70
2022/03/07 06:06:52;;;;;;;34.90;25.77;;;3.50;99.90;;;;;;4989989;28;20014;-70
2022/03/07 06:09:18;;;;;;;30.73;22.25;;;3.40;99.90;;;;;;4986263;28;20039;-69
2022/03/07 06:11:43;;;;;;;34.38;23.83;;;3.40;99.90;;;;;;4990417;28;20101;-70
2022/03/07 06:14:09;;;;;;;33.45;22.55;;;3.40;99.90;;;;;;4973280;28;20081;-70
2022/03/07 06:16:35;;;;;;;35.88;22.80;;;3.40;99.90;;;;;;4990943;28;20587;-70
2022/03/07 06:19:01;;;;;;;26.20;18.45;;;3.40;99.90;;;;;;4972905;28;20037;-70
2022/03/07 06:21:27;;;;;;;30.45;20.08;;;3.50;99.90;;;;;;4986305;28;20033;-70
2022/03/07 06:23:53;;;;;;;26.55;17.15;;;3.50;99.90;;;;;;4968456;28;20141;-71
2022/03/07 06:26:19;;;;;;;30.80;20.17;;;3.40;99.90;;;;;;4989885;28;20572;-70
2022/03/07 06:28:45;;;;;;;38.88;25.13;;;3.40;99.90;;;;;;4990489;28;20034;-72
2022/03/07 06:31:10;;;;;;;29.33;19.20;;;3.50;99.90;;;;;;4990786;28;20049;-70
2022/03/07 06:33:36;;;;;;;35.25;23.30;;;3.40;99.90;;;;;;4992348;28;20026;-64
2022/03/07 06:36:06;;;;;;;32.30;25.15;;;3.50;99.90;;;;;;4987064;28;20018;-64
2022/03/07 06:38:32;;;;;;;29.20;22.88;;;3.50;99.90;;;;;;4971162;28;20041;-66
2022/03/07 06:40:58;;;;;;;29.10;21.50;;;3.50;99.90;;;;;;4971713;28;20030;-66
2022/03/07 06:43:24;;;;;;;29.95;20.60;;;3.50;99.90;;;;;;4987764;28;20026;-65
2022/03/07 06:45:50;;;;;;;36.85;23.25;;;3.50;99.90;;;;;;4990852;28;20037;-65
2022/03/07 06:48:16;;;;;;;33.08;21.30;;;3.60;99.90;;;;;;4990745;28;20026;-65
2022/03/07 06:50:41;;;;;;;29.67;21.23;;;3.70;99.90;;;;;;4990764;28;20105;-66
2022/03/07 06:53:08;;;;;;;28.90;20.27;;;3.80;99.90;;;;;;4991064;28;20131;-65
2022/03/07 06:55:33;;;;;;;26.98;19.48;;;3.90;99.90;;;;;;4990874;28;20121;-64
2022/03/07 06:57:59;;;;;;;35.22;21.20;;;3.90;99.90;;;;;;4980879;28;20205;-65
2022/03/07 07:00:25;;;;;;;27.23;21.90;;;4.00;99.90;;;;;;4986657;28;20113;-63
2022/03/07 07:02:51;;;;;;;28.75;19.90;;;4.10;99.90;;;;;;4981417;28;20097;-65
2022/03/07 07:05:17;;;;;;;28.85;21.23;;;4.10;99.90;;;;;;4969446;28;20500;-65
2022/03/07 07:07:44;;;;;;;31.67;20.90;;;4.10;99.90;;;;;;4986572;28;20022;-64
2022/03/07 07:10:10;;;;;;;32.65;24.00;;;4.20;99.90;;;;;;4987476;28;20146;-65
2022/03/07 07:12:36;;;;;;;30.58;22.02;;;4.10;99.90;;;;;;4966927;28;20529;-64
2022/03/07 07:15:06;;;;;;;24.35;18.88;;;4.20;99.90;;;;;;4991059;28;20101;-65
2022/03/07 07:17:32;;;;;;;33.20;23.98;;;4.30;99.90;;;;;;4964608;28;20169;-65
2022/03/07 07:19:58;;;;;;;34.47;22.25;;;4.20;99.90;;;;;;4970374;28;20117;-65
2022/03/07 07:22:23;;;;;;;32.78;22.52;;;4.30;99.90;;;;;;4963596;28;20484;-65
2022/03/07 07:24:49;;;;;;;34.90;25.00;;;4.30;99.90;;;;;;4990636;28;20027;-65
2022/03/07 07:27:15;;;;;;;39.13;27.33;;;4.40;99.90;;;;;;4988812;28;20088;-65
2022/03/07 07:29:40;;;;;;;30.90;21.85;;;4.50;99.90;;;;;;4972911;28;20035;-65
2022/03/07 07:32:06;;;;;;;42.03;26.45;;;4.50;99.90;;;;;;4979348;28;20045;-65
2022/03/07 07:34:32;;;;;;;29.08;22.58;;;4.60;99.90;;;;;;4983776;28;20056;-65
2022/03/07 07:36:58;;;;;;;33.83;24.33;;;4.60;99.90;;;;;;4986641;28;20121;-64
2022/03/07 07:39:24;;;;;;;34.05;23.23;;;4.50;99.90;;;;;;4990663;28;20044;-65
2022/03/07 07:41:50;;;;;;;41.08;24.52;;;4.50;99.90;;;;;;4986477;28;20021;-65
2022/03/07 07:44:16;;;;;;;39.60;25.50;;;4.40;99.90;;;;;;4989808;28;20023;-64
2022/03/07 07:46:42;;;;;;;29.98;22.88;;;4.40;99.90;;;;;;4969874;28;20054;-65
2022/03/07 07:49:08;;;;;;;30.05;21.80;;;4.40;99.90;;;;;;4970467;28;20084;-65
2022/03/07 07:51:34;;;;;;;30.55;20.65;;;4.60;99.90;;;;;;4989468;28;20038;-65
2022/03/07 07:54:03;;;;;;;30.80;22.27;;;4.50;99.90;;;;;;4993015;28;20026;-65
2022/03/07 07:56:29;;;;;;;33.88;23.02;;;4.50;99.90;;;;;;4965830;28;20023;-65
2022/03/07 07:58:55;;;;;;;27.58;20.83;;;4.50;99.90;;;;;;4972185;28;20057;-64
2022/03/07 08:01:21;;;;;;;37.92;26.48;;;4.60;99.90;;;;;;4973984;28;20065;-64
2022/03/07 08:03:47;;;;;;;27.02;20.10;;;4.70;99.90;;;;;;4993743;28;20030;-63
2022/03/07 08:06:12;;;;;;;32.20;22.73;;;4.70;99.90;;;;;;4972755;28;20033;-64
2022/03/07 08:08:38;;;;;;;33.00;24.65;;;4.80;99.90;;;;;;4991758;28;20053;-64
2022/03/07 08:11:04;;;;;;;24.70;21.27;;;4.80;99.90;;;;;;4988215;28;20042;-64
2022/03/07 08:13:29;;;;;;;33.17;24.42;;;4.80;99.90;;;;;;4990194;28;20025;-63
2022/03/07 08:15:55;;;;;;;36.55;25.70;;;4.90;99.90;;;;;;4974506;28;20169;-64
2022/03/07 08:18:21;;;;;;;26.88;22.20;;;5.00;99.90;;;;;;4971565;28;20042;-64
2022/03/07 08:20:47;;;;;;;39.28;22.23;;;5.10;99.90;;;;;;4974117;28;20038;-65
2022/03/07 08:23:24;;;;;;;33.10;24.83;;;5.10;99.90;;;;;;4990565;28;20392;-65
2022/03/07 08:25:49;;;;;;;28.40;22.42;;;5.20;99.90;;;;;;4992561;28;20030;-64
2022/03/07 08:28:15;;;;;;;34.45;22.15;;;5.20;99.90;;;;;;4974063;28;20127;-65
2022/03/07 08:30:41;;;;;;;35.15;24.30;;;5.40;99.90;;;;;;4984501;28;20026;-64
2022/03/07 08:33:07;;;;;;;30.88;18.27;;;5.60;99.90;;;;;;4971610;28;20440;-65
2022/03/07 08:35:32;;;;;;;24.95;20.08;;;5.60;99.90;;;;;;4970789;28;20023;-64
2022/03/07 08:37:58;;;;;;;36.65;23.92;;;5.50;99.90;;;;;;4987451;28;20026;-63
2022/03/07 08:40:25;;;;;;;28.58;22.15;;;5.50;99.90;;;;;;4974535;28;20057;-63
2022/03/07 08:42:51;;;;;;;34.95;21.70;;;5.60;99.90;;;;;;4987339;28;20436;-63
2022/03/07 08:45:17;;;;;;;32.83;20.25;;;5.70;99.90;;;;;;4982810;28;20456;-63
2022/03/07 08:47:43;;;;;;;34.28;22.50;;;5.80;99.90;;;;;;4986295;28;20018;-65
2022/03/07 08:50:11;;;;;;;37.03;23.40;;;5.70;99.90;;;;;;4985648;28;20073;-64
2022/03/07 08:52:37;;;;;;;30.58;22.05;;;5.90;99.90;;;;;;4974606;28;20872;-65
2022/03/07 08:55:05;;;;;;;30.58;23.30;;;6.00;99.90;;;;;;4974237;28;20164;-65
2022/03/07 08:57:31;;;;;;;29.17;21.23;;;6.00;99.90;;;;;;4973511;28;20544;-64
2022/03/07 08:59:57;;;;;;;32.63;22.10;;;6.00;99.90;;;;;;4989438;28;20078;-65
2022/03/07 09:02:23;;;;;;;30.80;20.98;;;6.10;99.90;;;;;;4990804;28;20102;-65
2022/03/07 09:04:48;;;;;;;31.25;24.88;;;6.10;99.90;;;;;;4991853;28;20382;-65
2022/03/07 09:07:14;;;;;;;26.65;19.50;;;6.00;99.90;;;;;;4991834;28;20441;-65
2022/03/07 09:09:40;;;;;;;29.98;20.35;;;6.10;99.90;;;;;;4986463;28;20052;-64
2022/03/07 09:12:08;;;;;;;28.80;19.60;;;6.20;99.90;;;;;;4972391;28;20034;-64
2022/03/07 09:14:34;;;;;;;32.47;24.00;;;6.30;99.90;;;;;;4989048;28;20038;-64
2022/03/07 09:17:00;;;;;;;28.42;22.38;;;6.20;99.90;;;;;;4987350;28;20030;-65
2022/03/07 09:19:26;;;;;;;27.60;20.38;;;6.20;99.90;;;;;;4987344;28;20421;-66
2022/03/07 09:21:52;;;;;;;28.60;21.08;;;6.30;99.90;;;;;;4991546;28;20030;-66
2022/03/07 09:24:19;;;;;;;25.40;18.20;;;6.50;99.90;;;;;;4991873;28;20054;-67
2022/03/07 09:26:45;;;;;;;22.17;16.40;;;6.40;99.90;;;;;;4986995;28;20045;-65
2022/03/07 09:29:11;;;;;;;27.20;21.33;;;6.30;99.90;;;;;;4973487;28;20438;-66
2022/03/07 09:31:37;;;;;;;28.13;21.25;;;6.30;99.90;;;;;;4986029;28;20026;-67
2022/03/07 09:34:03;;;;;;;29.00;22.20;;;6.30;99.90;;;;;;4989496;28;20036;-66
2022/03/07 09:36:29;;;;;;;33.28;22.75;;;6.50;99.90;;;;;;4964210;28;20018;-67
2022/03/07 09:38:55;;;;;;;23.30;17.50;;;6.50;99.90;;;;;;4970343;28;20143;-66
2022/03/07 09:41:21;;;;;;;29.55;21.10;;;6.50;99.90;;;;;;4989488;28;20109;-67
2022/03/07 09:43:48;;;;;;;28.85;21.90;;;6.70;99.90;;;;;;4989324;28;20018;-67
2022/03/07 09:46:15;;;;;;;31.98;22.90;;;6.80;99.90;;;;;;4990784;28;20038;-66
2022/03/07 09:48:42;;;;;;;28.63;20.52;;;6.70;99.90;;;;;;4969260;28;20030;-67
2022/03/07 09:51:08;;;;;;;25.33;21.48;;;6.80;99.90;;;;;;4986624;28;20027;-67
2022/03/07 09:53:34;;;;;;;34.60;27.75;;;6.80;99.90;;;;;;4985532;28;20081;-66
2022/03/07 09:56:00;;;;;;;31.85;22.52;;;6.90;99.90;;;;;;4972920;28;20026;-64
2022/03/07 09:58:25;;;;;;;38.25;24.83;;;7.00;99.90;;;;;;4969386;28;20027;-65
2022/03/07 10:00:51;;;;;;;21.92;17.60;;;7.10;99.90;;;;;;4990499;28;20069;-67
2022/03/07 10:03:20;;;;;;;31.95;24.58;;;7.20;99.90;;;;;;4991635;28;20030;-64
2022/03/07 10:05:48;;;;;;;35.35;25.00;;;7.10;99.80;;;;;;4990443;28;20105;-65
2022/03/07 10:08:24;;;;;;;27.65;23.50;;;6.90;99.90;;;;;;4986572;28;20074;-64
2022/03/07 10:10:52;;;;;;;29.25;22.50;;;7.20;99.90;;;;;;4986984;28;20022;-64
2022/03/07 10:13:18;;;;;;;32.72;24.77;;;7.30;99.90;;;;;;4987419;28;20033;-64
2022/03/07 10:15:53;;;;;;;27.17;21.10;;;7.30;99.70;;;;;;4989196;28;20034;-65
2022/03/07 10:18:19;;;;;;;31.95;24.40;;;7.20;99.50;;;;;;4990295;28;20030;-64
2022/03/07 10:21:20;;;;;;;30.88;24.90;;;7.30;99.90;;;;;;4971373;28;20022;-63
2022/03/07 10:23:51;;;;;;;37.00;23.60;;;7.20;99.60;;;;;;4989244;28;20030;-64
2022/03/07 10:26:17;;;;;;;29.25;24.08;;;7.40;99.90;;;;;;4987283;28;20022;-64
2022/03/07 10:28:51;;;;;;;36.42;24.75;;;7.50;99.60;;;;;;4992517;28;20413;-64
2022/03/07 10:31:18;;;;;;;28.13;22.83;;;7.60;99.00;;;;;;4992727;28;20030;-63
2022/03/07 10:33:45;;;;;;;30.15;24.42;;;7.40;99.00;;;;;;4988096;28;20122;-64
2022/03/07 10:36:13;;;;;;;30.90;23.80;;;7.50;99.60;;;;;;4990326;28;20122;-64
2022/03/07 10:38:38;;;;;;;28.08;21.38;;;7.60;99.60;;;;;;4991930;28;20058;-63
2022/03/07 10:41:05;;;;;;;31.60;25.35;;;7.60;99.10;;;;;;4986615;28;20045;-63
2022/03/07 10:43:31;;;;;;;28.70;21.70;;;7.80;99.20;;;;;;4987317;28;20195;-63
2022/03/07 10:45:59;;;;;;;32.88;22.83;;;7.80;99.20;;;;;;4987831;28;20037;-66
2022/03/07 10:48:39;;;;;;;30.08;22.77;;;7.70;98.60;;;;;;4970680;28;20057;-64
2022/03/07 10:51:05;;;;;;;29.48;22.20;;;7.60;98.70;;;;;;4971120;28;20035;-63
2022/03/07 10:53:40;;;;;;;28.85;23.67;;;7.60;98.80;;;;;;4988689;28;20034;-63
2022/03/07 10:56:06;;;;;;;34.78;23.65;;;7.70;99.00;;;;;;4985668;28;20039;-64
2022/03/07 10:58:32;;;;;;;28.60;21.83;;;7.80;98.60;;;;;;4973606;28;20374;-64
2022/03/07 11:01:01;;;;;;;32.22;24.30;;;7.60;98.60;;;;;;4973626;28;21424;-64
2022/03/07 11:03:30;;;;;;;28.40;19.60;;;7.70;99.10;;;;;;4988392;28;20035;-65
2022/03/07 11:05:56;;;;;;;29.55;22.08;;;7.90;98.40;;;;;;4991273;28;20431;-63
2022/03/07 11:08:23;;;;;;;25.58;20.88;;;7.90;98.30;;;;;;4957241;28;20030;-65
2022/03/07 11:10:56;;;;;;;30.08;23.80;;;7.90;98.50;;;;;;4991885;28;20045;-64
2022/03/07 11:13:26;;;;;;;26.95;22.40;;;7.90;97.90;;;;;;4989852;28;20107;-64
2022/03/07 11:15:55;;;;;;;27.65;19.13;;;7.90;98.30;;;;;;4986352;28;20019;-64
2022/03/07 11:18:22;;;;;;;26.90;20.45;;;7.90;98.40;;;;;;4988047;28;20026;-64
2022/03/07 11:20:48;;;;;;;31.15;22.13;;;7.80;97.70;;;;;;4991215;28;20054;-65
2022/03/07 11:23:20;;;;;;;33.80;25.10;;;7.80;97.80;;;;;;4989231;28;20117;-65
2022/03/07 11:25:46;;;;;;;27.80;23.70;;;7.70;98.40;;;;;;4992061;28;20022;-65
2022/03/07 11:28:13;;;;;;;28.55;18.40;;;7.90;98.00;;;;;;4974911;28;20113;-64
2022/03/07 11:30:42;;;;;;;26.30;20.40;;;8.00;97.90;;;;;;4973004;28;20493;-63
2022/03/07 11:33:09;;;;;;;28.00;21.02;;;8.20;97.80;;;;;;4987958;28;20022;-64
2022/03/07 11:35:37;;;;;;;25.02;20.08;;;8.40;97.40;;;;;;4989476;28;20370;-64
2022/03/07 11:38:20;;;;;;;28.75;18.88;;;8.20;97.40;;;;;;4966722;28;20030;-65
2022/03/07 11:41:11;;;;;;;29.27;19.65;;;8.20;97.10;;;;;;4988074;28;20030;-64
2022/03/07 11:43:53;;;;;;;31.13;20.00;;;8.10;97.20;;;;;;4985949;28;20187;-63
2022/03/07 11:46:36;;;;;;;30.50;20.35;;;8.30;97.40;;;;;;4988096;28;20045;-63
2022/03/07 11:49:08;;;;;;;30.08;23.23;;;8.20;96.90;;;;;;4986778;28;20077;-65
2022/03/07 11:51:36;;;;;;;25.70;21.58;;;8.20;96.80;;;;;;4989780;28;20057;-64
2022/03/07 11:54:03;;;;;;;32.33;21.42;;;8.00;96.10;;;;;;4985810;28;20034;-64
2022/03/07 11:56:32;;;;;;;27.15;18.02;;;8.10;97.20;;;;;;4990148;28;20058;-65
2022/03/07 11:59:01;;;;;;;26.80;21.65;;;8.50;97.00;;;;;;4989175;28;20400;-64
2022/03/07 12:01:30;;;;;;;30.00;23.13;;;8.60;97.20;;;;;;4989747;28;20542;-64
2022/03/07 12:04:08;;;;;;;27.17;21.00;;;8.90;96.90;;;;;;4989912;28;20026;-65
2022/03/07 12:06:45;;;;;;;28.98;19.20;;;8.90;96.10;;;;;;4989644;28;20459;-64
2022/03/07 12:09:21;;;;;;;27.83;19.95;;;8.70;96.10;;;;;;4988393;28;20177;-65
2022/03/07 12:12:00;;;;;;;27.95;20.83;;;8.50;96.10;;;;;;4988439;28;20022;-63
2022/03/07 12:14:32;;;;;;;30.50;21.73;;;8.50;96.30;;;;;;4988342;28;20051;-64
2022/03/07 12:17:01;;;;;;;29.05;22.05;;;8.70;96.00;;;;;;4990216;28;20080;-65
2022/03/07 12:19:28;;;;;;;26.05;20.92;;;8.80;96.40;;;;;;4972003;28;20114;-65
2022/03/07 12:21:54;;;;;;;25.40;21.13;;;8.80;95.30;;;;;;4973655;28;20073;-64
2022/03/07 12:24:22;;;;;;;27.67;24.15;;;8.80;95.70;;;;;;4993182;28;20022;-64
2022/03/07 12:26:53;;;;;;;29.02;24.00;;;8.80;96.30;;;;;;4975391;28;20025;-64
2022/03/07 12:29:21;;;;;;;23.23;19.83;;;9.00;96.20;;;;;;4992532;28;20023;-66
2022/03/07 12:31:48;;;;;;;26.38;19.98;;;8.90;95.30;;;;;;4974456;28;20511;-63
2022/03/07 12:34:17;;;;;;;23.02;18.80;;;8.90;95.40;;;;;;4990226;28;20053;-64